createdAt,value
2018-12-19T00:00:04.285Z,102623.30
2018-12-19T00:02:32.620Z,102624.53
2018-12-19T00:05:01.495Z,102625.48
2018-12-19T00:07:29.796Z,102623.95
2018-12-19T00:09:58.504Z,102624.59
2018-12-19T00:12:26.830Z,102625.38
2018-12-19T00:14:55.157Z,102618.36
2018-12-19T00:17:23.498Z,102617.60
2018-12-19T00:19:51.822Z,102626.61
2018-12-19T00:22:20.156Z,102624.22
2018-12-19T00:24:48.499Z,102622.66
2018-12-19T00:27:16.846Z,102619.58
2018-12-19T00:29:45.169Z,102616.92
2018-12-19T00:32:13.503Z,102611.67
2018-12-19T00:34:41.846Z,102612.33
2018-12-19T00:37:10.243Z,102614.77
2018-12-19T00:39:38.568Z,102616.63
2018-12-19T00:42:06.903Z,102620.48
2018-12-19T00:44:35.240Z,102618.95
2018-12-19T00:47:03.573Z,102618.95
2018-12-19T00:49:31.897Z,102622.56
2018-12-19T00:52:00.227Z,102622.05
2018-12-19T00:54:28.576Z,102621.55
2018-12-19T00:56:56.896Z,102624.61
2018-12-19T00:59:25.223Z,102627.42
2018-12-19T01:01:53.570Z,102630.88
2018-12-19T01:04:21.882Z,102634.16
2018-12-19T01:06:50.217Z,102632.90
2018-12-19T01:09:18.543Z,102637.16
2018-12-19T01:11:47.185Z,102638.52
2018-12-19T01:14:15.512Z,102639.16
2018-12-19T01:16:43.837Z,102633.25
2018-12-19T01:19:12.167Z,102633.09
2018-12-19T01:21:40.500Z,102629.63
2018-12-19T01:24:08.846Z,102627.31
2018-12-19T01:26:37.176Z,102624.86
2018-12-19T01:29:05.502Z,102624.85
2018-12-19T01:31:33.836Z,102625.66
2018-12-19T01:34:02.170Z,102624.39
2018-12-19T01:36:30.506Z,102625.34
2018-12-19T01:38:58.829Z,102625.12
2018-12-19T01:41:27.169Z,102623.20
2018-12-19T01:43:55.492Z,102625.08
2018-12-19T01:46:23.814Z,102619.54
2018-12-19T01:48:52.145Z,102616.30
2018-12-19T01:51:20.480Z,102615.94
2018-12-19T01:53:48.811Z,102620.90
2018-12-19T01:56:17.139Z,102617.67
2018-12-19T01:58:45.476Z,102611.91
2018-12-19T02:01:13.799Z,102607.45
2018-12-19T02:03:42.136Z,102607.13
2018-12-19T02:06:10.462Z,102602.94
2018-12-19T02:08:38.806Z,102604.41
2018-12-19T02:11:07.148Z,102596.25
2018-12-19T02:13:35.476Z,102595.80
2018-12-19T02:16:03.801Z,102592.94
2018-12-19T02:18:32.129Z,102589.45
2018-12-19T02:21:01.431Z,102581.73
2018-12-19T02:23:29.761Z,102580.03
2018-12-19T02:25:58.103Z,102576.72
2018-12-19T02:28:26.419Z,102576.52
2018-12-19T02:30:54.766Z,102575.90
2018-12-19T02:33:23.100Z,102577.73
2018-12-19T02:35:51.426Z,102574.81
2018-12-19T02:38:19.763Z,102570.59
2018-12-19T02:40:48.099Z,102569.75
2018-12-19T02:43:16.423Z,102568.45
2018-12-19T02:45:44.743Z,102573.61
2018-12-19T02:48:13.094Z,102570.11
2018-12-19T02:50:41.426Z,102569.67
2018-12-19T02:53:09.753Z,102573.29
2018-12-19T02:55:38.074Z,102571.16
2018-12-19T02:58:06.407Z,102573.33
2018-12-19T03:00:34.740Z,102569.84
2018-12-19T03:03:03.066Z,102571.15
2018-12-19T03:05:31.429Z,102567.14
2018-12-19T03:07:59.723Z,102562.30
2018-12-19T03:10:28.052Z,102559.12
2018-12-19T03:12:56.378Z,102559.81
2018-12-19T03:15:24.789Z,102555.27
2018-12-19T03:17:53.109Z,102557.44
2018-12-19T03:20:21.433Z,102551.83
2018-12-19T03:22:49.771Z,102545.94
2018-12-19T03:25:18.086Z,102546.78
2018-12-19T03:27:46.440Z,102553.36
2018-12-19T03:30:14.772Z,102549.95
2018-12-19T03:32:43.093Z,102550.70
2018-12-19T03:35:11.428Z,102547.56
2018-12-19T03:37:39.763Z,102544.75
2018-12-19T03:40:08.092Z,102542.03
2018-12-19T03:42:36.421Z,102548.89
2018-12-19T03:45:04.753Z,102551.03
2018-12-19T03:47:33.078Z,102549.77
2018-12-19T03:50:01.432Z,102549.77
2018-12-19T03:52:29.954Z,102548.75
2018-12-19T03:54:58.056Z,102552.17
2018-12-19T03:57:26.387Z,102543.91
2018-12-19T03:59:54.709Z,102543.72
2018-12-19T04:02:23.049Z,102544.34
2018-12-19T04:04:51.376Z,102542.66
2018-12-19T04:07:19.704Z,102551.07
2018-12-19T04:09:48.035Z,102552.41
2018-12-19T04:12:16.357Z,102552.92
2018-12-19T04:14:44.688Z,102547.82
2018-12-19T04:17:13.019Z,102545.05
2018-12-19T04:19:41.341Z,102536.75
2018-12-19T04:22:09.667Z,102533.92
2018-12-19T04:24:37.995Z,102525.61
2018-12-19T04:27:06.323Z,102521.63
2018-12-19T04:29:34.647Z,102525.95
2018-12-19T04:32:02.986Z,102528.25
2018-12-19T04:34:31.322Z,102524.98
2018-12-19T04:36:59.649Z,102525.30
2018-12-19T04:39:27.987Z,102526.74
2018-12-19T04:41:56.316Z,102526.48
2018-12-19T04:44:24.869Z,102524.09
2018-12-19T04:46:52.971Z,102521.79
2018-12-19T04:49:21.325Z,102524.09
2018-12-19T04:51:49.661Z,102522.67
2018-12-19T04:54:17.982Z,102522.72
2018-12-19T04:56:46.338Z,102520.25
2018-12-19T04:59:14.702Z,102510.95
2018-12-19T05:01:43.050Z,102513.05
2018-12-19T05:04:11.362Z,102509.32
2018-12-19T05:06:39.692Z,102510.84
2018-12-19T05:09:08.017Z,102513.67
2018-12-19T05:11:36.361Z,102515.98
2018-12-19T05:14:04.685Z,102518.09
2018-12-19T05:16:33.043Z,102516.50
2018-12-19T05:19:01.679Z,102516.38
2018-12-19T05:21:30.020Z,102517.06
2018-12-19T05:23:58.592Z,102510.88
2018-12-19T05:26:26.692Z,102514.56
2018-12-19T05:28:55.016Z,102510.50
2018-12-19T05:31:23.365Z,102511.33
2018-12-19T05:33:51.695Z,102509.98
2018-12-19T05:36:20.039Z,102512.22
2018-12-19T05:38:48.374Z,102511.33
2018-12-19T05:41:16.709Z,102513.63
2018-12-19T05:43:45.352Z,102514.90
2018-12-19T05:46:13.676Z,102512.24
2018-12-19T05:48:42.001Z,102516.19
2018-12-19T05:51:10.337Z,102518.62
2018-12-19T05:53:38.670Z,102521.77
2018-12-19T05:56:07.003Z,102523.85
2018-12-19T05:58:35.372Z,102527.68
2018-12-19T06:01:03.685Z,102529.62
2018-12-19T06:03:32.007Z,102528.98
2018-12-19T06:06:00.343Z,102534.19
2018-12-19T06:08:28.668Z,102532.86
2018-12-19T06:10:57.000Z,102530.27
2018-12-19T06:13:25.327Z,102529.34
2018-12-19T06:15:53.658Z,102529.98
2018-12-19T06:18:21.986Z,102527.84
2018-12-19T06:20:50.315Z,102520.36
2018-12-19T06:23:18.664Z,102515.86
2018-12-19T06:25:46.991Z,102513.44
2018-12-19T06:28:15.333Z,102514.55
2018-12-19T06:30:43.674Z,102509.09
2018-12-19T06:33:12.012Z,102507.09
2018-12-19T06:35:40.336Z,102510.48
2018-12-19T06:38:08.667Z,102507.94
2018-12-19T06:40:37.000Z,102506.72
2018-12-19T06:43:05.361Z,102505.20
2018-12-19T06:45:33.679Z,102506.70
2018-12-19T06:48:02.010Z,102504.44
2018-12-19T06:50:30.351Z,102497.04
2018-12-19T06:52:58.675Z,102496.65
2018-12-19T06:55:27.002Z,102498.00
2018-12-19T06:57:55.332Z,102496.81
2018-12-19T07:00:23.664Z,102499.22
2018-12-19T07:02:52.741Z,102501.64
2018-12-19T07:05:21.166Z,102503.16
2018-12-19T07:07:49.493Z,102505.84
2018-12-19T07:10:17.839Z,102501.43
2018-12-19T07:12:46.199Z,102496.39
2018-12-19T07:15:14.542Z,102494.90
2018-12-19T07:17:43.098Z,102494.37
2018-12-19T07:20:11.203Z,102490.64
2018-12-19T07:22:39.620Z,102492.78
2018-12-19T07:25:07.961Z,102491.82
2018-12-19T07:27:36.300Z,102487.25
2018-12-19T07:30:04.910Z,102486.91
2018-12-19T07:32:33.240Z,102485.66
2018-12-19T07:35:01.588Z,102483.89
2018-12-19T07:37:29.967Z,102480.55
2018-12-19T07:39:58.268Z,102479.34
2018-12-19T07:42:26.588Z,102482.98
2018-12-19T07:44:54.921Z,102485.23
2018-12-19T07:47:23.480Z,102479.58
2018-12-19T07:49:51.585Z,102469.85
2018-12-19T07:52:19.906Z,102472.56
2018-12-19T07:54:48.249Z,102468.30
2018-12-19T07:57:16.595Z,102465.91
2018-12-19T07:59:44.939Z,102467.97
2018-12-19T08:02:13.293Z,102461.00
2018-12-19T08:04:41.623Z,102455.94
2018-12-19T08:07:10.016Z,102454.65
2018-12-19T08:09:38.383Z,102453.27
2018-12-19T08:12:07.075Z,102456.56
2018-12-19T08:14:35.421Z,102459.09
2018-12-19T08:17:03.744Z,102457.09
2018-12-19T08:19:32.113Z,102455.07
2018-12-19T08:22:00.440Z,102448.41
2018-12-19T08:24:28.779Z,102447.86
2018-12-19T08:26:57.135Z,102445.05
2018-12-19T08:29:25.472Z,102447.53
2018-12-19T08:31:53.826Z,102439.95
2018-12-19T08:34:22.150Z,102430.07
2018-12-19T08:36:50.490Z,102425.28
2018-12-19T08:39:18.834Z,102423.41
2018-12-19T08:41:47.178Z,102418.72
2018-12-19T08:44:15.511Z,102416.06
2018-12-19T08:46:43.839Z,102410.98
2018-12-19T08:49:12.165Z,102411.27
2018-12-19T08:51:40.515Z,102416.11
2018-12-19T08:54:08.850Z,102413.67
2018-12-19T08:56:37.182Z,102415.47
2018-12-19T08:59:05.508Z,102409.59
2018-12-19T09:01:33.840Z,102409.41
2018-12-19T09:04:02.185Z,102412.63
2018-12-19T09:06:30.538Z,102406.91
2018-12-19T09:08:58.882Z,102410.78
2018-12-19T09:11:27.216Z,102403.16
2018-12-19T09:13:55.864Z,102407.56
2018-12-19T09:16:24.200Z,102409.48
2018-12-19T09:18:52.525Z,102400.27
2018-12-19T09:21:20.862Z,102394.02
2018-12-19T09:23:49.189Z,102394.27
2018-12-19T09:26:17.524Z,102392.02
2018-12-19T09:28:45.887Z,102390.57
2018-12-19T09:31:14.216Z,102390.09
2018-12-19T09:33:42.801Z,102395.14
2018-12-19T09:36:10.926Z,102391.85
2018-12-19T09:38:39.251Z,102393.05
2018-12-19T09:41:12.315Z,102388.55
2018-12-19T09:43:35.920Z,102384.52
2018-12-19T09:46:04.602Z,102384.95
2018-12-19T09:48:32.943Z,102381.89
2018-12-19T09:51:01.280Z,102378.58
2018-12-19T09:53:29.613Z,102380.03
2018-12-19T09:55:57.951Z,102369.98
2018-12-19T09:58:26.295Z,102368.80
2018-12-19T10:00:54.626Z,102368.58
2018-12-19T10:03:22.957Z,102371.69
2018-12-19T10:05:51.281Z,102368.20
2018-12-19T10:08:19.615Z,102370.46
2018-12-19T10:10:47.961Z,102367.34
2018-12-19T10:13:16.287Z,102368.19
2018-12-19T10:15:44.615Z,102362.94
2018-12-19T10:18:13.915Z,102360.88
2018-12-19T10:20:41.292Z,102359.59
2018-12-19T10:23:09.625Z,102365.28
2018-12-19T10:25:37.986Z,102365.14
2018-12-19T10:28:06.309Z,102367.31
2018-12-19T10:30:34.655Z,102363.23
2018-12-19T10:33:02.987Z,102363.22
2018-12-19T10:35:31.328Z,102362.75
2018-12-19T10:37:59.665Z,102353.38
2018-12-19T10:40:27.998Z,102340.11
2018-12-19T10:42:56.645Z,102342.45
2018-12-19T10:45:24.985Z,102336.59
2018-12-19T10:47:53.321Z,102337.16
2018-12-19T10:50:21.657Z,102334.15
2018-12-19T10:52:49.977Z,102334.81
2018-12-19T10:55:18.311Z,102331.14
2018-12-19T10:57:46.644Z,102321.27
2018-12-19T11:00:14.978Z,102315.64
2018-12-19T11:02:43.306Z,102317.81
2018-12-19T11:05:11.643Z,102316.31
2018-12-19T11:07:39.982Z,102320.86
2018-12-19T11:10:08.330Z,102317.12
2018-12-19T11:12:36.658Z,102306.44
2018-12-19T11:15:05.002Z,102305.91
2018-12-19T11:17:33.327Z,102314.57
2018-12-19T11:20:01.748Z,102307.38
2018-12-19T11:22:30.090Z,102302.80
2018-12-19T11:24:58.468Z,102306.52
2018-12-19T11:27:26.797Z,102308.05
2018-12-19T11:29:55.342Z,102302.84
2018-12-19T11:32:23.676Z,102309.50
2018-12-19T11:34:52.027Z,102299.91
2018-12-19T11:37:20.364Z,102302.52
2018-12-19T11:39:48.714Z,102299.83
2018-12-19T11:42:17.031Z,102300.66
2018-12-19T11:44:45.368Z,102298.92
2018-12-19T11:47:13.690Z,102296.61
2018-12-19T11:49:42.019Z,102296.36
2018-12-19T11:52:10.377Z,102292.19
2018-12-19T11:54:38.697Z,102283.70
2018-12-19T11:57:07.036Z,102278.79
2018-12-19T11:59:35.389Z,102273.55
2018-12-19T12:02:03.716Z,102275.39
2018-12-19T12:04:32.050Z,102274.27
2018-12-19T12:07:00.405Z,102274.39
2018-12-19T12:09:28.751Z,102278.63
2018-12-19T12:11:57.099Z,102277.55
2018-12-19T12:14:25.661Z,102282.58
2018-12-19T12:16:53.781Z,102274.12
2018-12-19T12:19:22.116Z,102280.78
2018-12-19T12:21:50.460Z,102280.12
2018-12-19T12:24:18.809Z,102271.52
2018-12-19T12:26:47.136Z,102270.76
2018-12-19T12:29:15.470Z,102266.99
2018-12-19T12:31:44.314Z,102268.77
2018-12-19T12:34:12.417Z,102264.59
2018-12-19T12:36:40.749Z,102258.98
2018-12-19T12:39:09.092Z,102256.82
2018-12-19T12:41:37.414Z,102258.34
2018-12-19T12:44:05.743Z,102260.23
2018-12-19T12:46:34.079Z,102265.81
2018-12-19T12:49:02.419Z,102252.48
2018-12-19T12:51:31.097Z,102243.98
2018-12-19T12:53:59.664Z,102235.29
2018-12-19T12:56:27.860Z,102228.34
2018-12-19T12:58:56.265Z,102238.92
2018-12-19T13:01:24.546Z,102244.88
2018-12-19T13:03:52.880Z,102243.13
2018-12-19T13:06:21.213Z,102245.45
2018-12-19T13:08:49.533Z,102240.55
2018-12-19T13:11:17.876Z,102230.74
2018-12-19T13:13:46.215Z,102224.39
2018-12-19T13:16:14.563Z,102219.70
2018-12-19T13:18:42.894Z,102221.55
2018-12-19T13:21:11.234Z,102221.77
2018-12-19T13:23:39.555Z,102216.84
2018-12-19T13:26:07.920Z,102208.57
2018-12-19T13:28:36.241Z,102201.84
2018-12-19T13:31:04.598Z,102197.59
2018-12-19T13:33:33.332Z,102197.88
2018-12-19T13:36:01.438Z,102187.65
2018-12-19T13:38:29.764Z,102184.20
2018-12-19T13:40:58.323Z,102171.72
2018-12-19T13:43:26.439Z,102169.70
2018-12-19T13:45:54.776Z,102171.16
2018-12-19T13:48:23.122Z,102166.58
2018-12-19T13:50:51.464Z,102161.07
2018-12-19T13:53:19.805Z,102162.63
2018-12-19T13:55:48.147Z,102172.64
2018-12-19T13:58:16.487Z,102159.45
2018-12-19T14:00:44.809Z,102160.11
2018-12-19T14:03:13.436Z,102163.93
2018-12-19T14:05:41.800Z,102165.11
2018-12-19T14:08:10.138Z,102166.59
2018-12-19T14:10:38.468Z,102165.22
2018-12-19T14:13:06.804Z,102167.05
2018-12-19T14:15:35.138Z,102162.09
2018-12-19T14:18:03.469Z,102166.73
2018-12-19T14:20:31.806Z,102159.33
2018-12-19T14:23:00.144Z,102164.72
2018-12-19T14:25:28.518Z,102159.11
2018-12-19T14:27:56.850Z,102156.95
2018-12-19T14:30:25.519Z,102160.73
2018-12-19T14:32:53.849Z,102164.71
2018-12-19T14:35:22.213Z,102167.59
2018-12-19T14:37:50.552Z,102165.91
2018-12-19T14:40:18.906Z,102173.75
2018-12-19T14:42:47.261Z,102168.06
2018-12-19T14:45:15.599Z,102171.84
2018-12-19T14:47:44.175Z,102170.30
2018-12-19T14:50:12.286Z,102170.77
2018-12-19T14:52:40.635Z,102168.34
2018-12-19T14:55:09.664Z,102178.13
2018-12-19T14:57:38.021Z,102170.13
2018-12-19T15:00:06.362Z,102173.30
2018-12-19T15:02:34.712Z,102175.52
2018-12-19T15:05:03.107Z,102163.79
2018-12-19T15:07:31.462Z,102155.80
2018-12-19T15:09:59.829Z,102153.18
2018-12-19T15:12:28.876Z,102156.70
2018-12-19T15:14:57.233Z,102158.63
2018-12-19T15:17:26.294Z,102162.42
2018-12-19T15:19:54.631Z,102154.97
2018-12-19T15:22:22.989Z,102152.02
2018-12-19T15:24:51.558Z,102146.70
2018-12-19T15:27:19.658Z,102149.55
2018-12-19T15:29:53.415Z,102146.66
2018-12-19T15:32:20.634Z,102145.88
2018-12-19T15:34:48.961Z,102148.64
2018-12-19T15:37:17.301Z,102143.05
2018-12-19T15:39:45.643Z,102148.94
2018-12-19T15:42:13.966Z,102145.48
2018-12-19T15:44:45.806Z,102144.06
2018-12-19T15:47:14.175Z,102149.69
2018-12-19T15:49:43.177Z,102146.37
2018-12-19T15:52:11.515Z,102144.34
2018-12-19T15:54:39.853Z,102144.38
2018-12-19T15:57:08.188Z,102149.66
2018-12-19T15:59:36.539Z,102147.04
2018-12-19T16:02:05.644Z,102137.06
2018-12-19T16:04:33.984Z,102138.45
2018-12-19T16:07:02.349Z,102132.47
2018-12-19T16:09:30.649Z,102131.34
2018-12-19T16:11:59.274Z,102129.40
2018-12-19T16:14:27.388Z,102131.91
2018-12-19T16:16:55.793Z,102131.02
2018-12-19T16:19:24.119Z,102135.84
2018-12-19T16:21:52.455Z,102131.19
2018-12-19T16:24:20.791Z,102126.25
2018-12-19T16:26:49.176Z,102127.36
2018-12-19T16:29:17.631Z,102119.09
2018-12-19T16:31:45.991Z,102111.55
2018-12-19T16:34:14.320Z,102113.15
2018-12-19T16:36:42.751Z,102113.71
2018-12-19T16:39:11.212Z,102109.72
2018-12-19T16:41:39.575Z,102112.11
2018-12-19T16:44:07.953Z,102111.39
2018-12-19T16:46:36.286Z,102110.67
2018-12-19T16:49:04.755Z,102106.56
2018-12-19T16:51:33.138Z,102113.09
2018-12-19T16:54:01.490Z,102110.73
2018-12-19T16:56:29.873Z,102106.54
2018-12-19T16:58:58.249Z,102109.97
2018-12-19T17:01:26.574Z,102106.91
2018-12-19T17:03:54.903Z,102103.44
2018-12-19T17:06:23.229Z,102100.09
2018-12-19T17:08:51.575Z,102102.27
2018-12-19T17:11:21.983Z,102104.02
2018-12-19T17:13:48.258Z,102098.89
2018-12-19T17:16:16.598Z,102090.15
2018-12-19T17:18:44.927Z,102078.21
2018-12-19T17:21:13.489Z,102072.66
2018-12-19T17:23:41.613Z,102061.77
2018-12-19T17:26:09.945Z,102061.55
2018-12-19T17:28:38.296Z,102060.02
2018-12-19T17:31:06.660Z,102058.65
2018-12-19T17:33:35.103Z,102055.33
2018-12-19T17:36:03.436Z,102053.74
2018-12-19T17:38:31.761Z,102062.00
2018-12-19T17:41:00.093Z,102059.27
2018-12-19T17:43:28.418Z,102063.95
2018-12-19T17:45:56.750Z,102063.17
2018-12-19T17:48:25.122Z,102065.66
2018-12-19T17:50:54.475Z,102068.91
2018-12-19T17:53:22.815Z,102069.91
2018-12-19T17:55:51.133Z,102067.64
2018-12-19T17:58:19.685Z,102063.00
2018-12-19T18:00:47.817Z,102065.31
2018-12-19T18:03:16.153Z,102060.18
2018-12-19T18:05:44.501Z,102065.16
2018-12-19T18:08:12.865Z,102064.91
2018-12-19T18:10:41.249Z,102066.58
2018-12-19T18:13:09.520Z,102078.05
2018-12-19T18:15:37.887Z,102072.27
2018-12-19T18:18:06.225Z,102067.97
2018-12-19T18:20:34.561Z,102061.27
2018-12-19T18:23:02.896Z,102065.16
2018-12-19T18:25:31.281Z,102064.59
2018-12-19T18:27:59.626Z,102065.94
2018-12-19T18:30:27.982Z,102048.82
2018-12-19T18:32:56.333Z,102044.23
2018-12-19T18:35:24.673Z,102042.20
2018-12-19T18:37:53.038Z,102040.57
2018-12-19T18:40:21.598Z,102035.00
2018-12-19T18:42:49.929Z,102036.28
2018-12-19T18:45:18.279Z,102041.68
2018-12-19T18:47:46.775Z,102029.41
2018-12-19T18:50:15.112Z,102033.29
2018-12-19T18:52:43.439Z,102039.14
2018-12-19T18:55:11.808Z,102034.05
2018-12-19T18:57:40.127Z,102042.08
2018-12-19T19:00:09.349Z,102046.14
2018-12-19T19:02:37.648Z,102039.57
2018-12-19T19:05:06.016Z,102034.89
2018-12-19T19:07:34.306Z,102031.62
2018-12-19T19:10:02.643Z,102030.99
2018-12-19T19:12:31.535Z,102032.88
2018-12-19T19:14:59.677Z,102026.40
2018-12-19T19:17:28.010Z,102019.08
2018-12-19T19:19:56.353Z,102018.32
2018-12-19T19:22:24.717Z,102017.60
2018-12-19T19:24:53.046Z,102014.19
2018-12-19T19:27:23.184Z,102017.44
2018-12-19T19:29:51.530Z,102020.68
2018-12-19T19:32:19.873Z,102017.80
2018-12-19T19:34:48.213Z,102008.75
2018-12-19T19:37:16.551Z,102009.58
2018-12-19T19:39:44.887Z,102012.74
2018-12-19T19:42:13.241Z,102002.79
2018-12-19T19:44:41.565Z,102003.85
2018-12-19T19:47:09.933Z,101999.28
2018-12-19T19:49:38.278Z,101999.39
2018-12-19T19:52:06.652Z,101995.29
2018-12-19T19:54:34.998Z,101987.05
2018-12-19T19:57:03.342Z,101990.38
2018-12-19T19:59:31.702Z,101991.37
2018-12-19T20:02:00.015Z,101991.83
2018-12-19T20:04:28.588Z,101996.23
2018-12-19T20:07:00.047Z,101996.53
2018-12-19T20:09:25.036Z,101989.71
2018-12-19T20:11:53.385Z,101988.73
2018-12-19T20:14:21.731Z,101986.42
2018-12-19T20:16:55.806Z,101989.95
2018-12-19T20:19:24.182Z,101983.94
2018-12-19T20:21:52.543Z,101986.09
2018-12-19T20:24:20.876Z,101989.77
2018-12-19T20:26:49.236Z,101988.20
2018-12-19T20:29:17.578Z,101987.23
2018-12-19T20:31:45.908Z,101984.92
2018-12-19T20:34:14.519Z,101981.88
2018-12-19T20:36:43.166Z,101978.42
2018-12-19T20:39:11.561Z,101976.94
2018-12-19T20:41:40.147Z,101979.66
2018-12-19T20:44:08.253Z,101979.59
2018-12-19T20:46:36.748Z,101982.55
2018-12-19T20:49:05.323Z,101983.77
2018-12-19T20:51:33.419Z,101980.45
2018-12-19T20:54:01.758Z,101982.84
2018-12-19T20:56:30.120Z,101979.92
2018-12-19T20:58:58.497Z,101981.31
2018-12-19T21:01:26.813Z,101976.44
2018-12-19T21:03:55.151Z,101976.13
2018-12-19T21:06:23.524Z,101974.72
2018-12-19T21:08:51.868Z,101977.28
2018-12-19T21:11:20.218Z,101976.75
2018-12-19T21:13:48.558Z,101971.99
2018-12-19T21:16:16.901Z,101974.09
2018-12-19T21:18:45.232Z,101971.30
2018-12-19T21:21:13.740Z,101965.29
2018-12-19T21:23:42.084Z,101966.09
2018-12-19T21:26:10.459Z,101965.72
2018-12-19T21:28:38.838Z,101963.34
2018-12-19T21:31:07.192Z,101963.76
2018-12-19T21:33:35.549Z,101965.14
2018-12-19T21:36:04.004Z,101967.23
2018-12-19T21:38:32.245Z,101969.52
2018-12-19T21:41:00.636Z,101968.33
2018-12-19T21:43:28.927Z,101965.04
2018-12-19T21:45:57.267Z,101965.46
2018-12-19T21:48:25.653Z,101964.45
2018-12-19T21:50:53.944Z,101960.44
2018-12-19T21:53:22.303Z,101960.97
2018-12-19T21:55:50.636Z,101955.70
2018-12-19T21:58:18.975Z,101955.09
2018-12-19T22:00:47.309Z,101958.95
2018-12-19T22:03:15.727Z,101957.17
2018-12-19T22:05:44.970Z,101956.45
2018-12-19T22:08:13.360Z,101954.21
2018-12-19T22:10:41.629Z,101955.44
2018-12-19T22:13:10.101Z,101960.25
2018-12-19T22:15:38.597Z,101967.41
2018-12-19T22:18:13.103Z,101970.97
2018-12-19T22:20:41.416Z,101967.41
2018-12-19T22:23:09.834Z,101967.46
2018-12-19T22:25:38.152Z,101975.42
2018-12-19T22:28:06.530Z,101972.78
2018-12-19T22:30:35.016Z,101960.33
2018-12-19T22:33:03.446Z,101959.11
2018-12-19T22:35:31.957Z,101958.75
2018-12-19T22:38:00.236Z,101958.03
2018-12-19T22:40:28.649Z,101955.76
2018-12-19T22:42:56.895Z,101955.38
2018-12-19T22:45:25.236Z,101959.77
2018-12-19T22:47:53.673Z,101959.85
2018-12-19T22:50:22.059Z,101954.14
2018-12-19T22:52:51.282Z,101945.42
2018-12-19T22:55:19.639Z,101942.88
2018-12-19T22:57:48.197Z,101937.85
2018-12-19T23:00:16.543Z,101942.55
2018-12-19T23:02:51.067Z,101944.16
2018-12-19T23:05:19.156Z,101950.45
2018-12-19T23:07:47.641Z,101950.73
2018-12-19T23:10:16.093Z,101951.48
2018-12-19T23:12:44.617Z,101944.04
2018-12-19T23:15:13.004Z,101946.44
2018-12-19T23:17:41.985Z,101940.50
2018-12-19T23:20:10.330Z,101937.68
2018-12-19T23:22:38.621Z,101932.91
2018-12-19T23:25:07.048Z,101934.69
2018-12-19T23:27:35.422Z,101932.94
2018-12-19T23:30:03.660Z,101931.80
2018-12-19T23:32:32.000Z,101928.87
2018-12-19T23:35:00.431Z,101938.19
2018-12-19T23:37:28.643Z,101931.37
2018-12-19T23:39:56.968Z,101930.39
2018-12-19T23:42:25.303Z,101931.97
2018-12-19T23:44:53.642Z,101924.48
2018-12-19T23:47:21.994Z,101921.48
2018-12-19T23:49:50.362Z,101924.05
2018-12-19T23:52:18.802Z,101923.73
2018-12-19T23:54:46.956Z,101915.16
2018-12-19T23:57:15.296Z,101915.33
2018-12-19T23:59:43.630Z,101917.23
